sensor_id;sensor_type;location;lat;lon;timestamp;P1;durP1;ratioP1;P2;durP2;ratioP2
19384;SDS011;9828;54.122;17.974;2023-07-29T00:04:34;10.30;;;7.55;;
19384;SDS011;9828;54.122;17.974;2023-07-29T00:09:55;9.85;;;7.55;;
19384;SDS011;9828;54.122;17.974;2023-07-29T00:15:16;9.60;;;7.75;;
19384;SDS011;9828;54.122;17.974;2023-07-29T00:20:38;11.27;;;7.47;;
19384;SDS011;9828;54.122;17.974;2023-07-29T00:25:59;10.82;;;7.93;;
19384;SDS011;9828;54.122;17.974;2023-07-29T00:31:20;9.82;;;7.63;;
19384;SDS011;9828;54.122;17.974;2023-07-29T00:36:44;13.02;;;9.15;;
19384;SDS011;9828;54.122;17.974;2023-07-29T00:42:05;8.73;;;7.18;;
19384;SDS011;9828;54.122;17.974;2023-07-29T00:47:27;10.93;;;7.03;;
19384;SDS011;9828;54.122;17.974;2023-07-29T00:52:49;7.82;;;6.60;;
19384;SDS011;9828;54.122;17.974;2023-07-29T00:58:10;10.95;;;7.68;;
19384;SDS011;9828;54.122;17.974;2023-07-29T01:03:32;9.38;;;7.15;;
19384;SDS011;9828;54.122;17.974;2023-07-29T01:09:01;10.93;;;7.25;;
19384;SDS011;9828;54.122;17.974;2023-07-29T01:14:28;14.93;;;7.97;;
19384;SDS011;9828;54.122;17.974;2023-07-29T01:25:28;9.98;;;7.90;;
19384;SDS011;9828;54.122;17.974;2023-07-29T01:30:49;13.63;;;8.43;;
19384;SDS011;9828;54.122;17.974;2023-07-29T01:36:18;10.68;;;7.47;;
19384;SDS011;9828;54.122;17.974;2023-07-29T01:41:43;13.20;;;7.85;;
19384;SDS011;9828;54.122;17.974;2023-07-29T01:47:05;10.65;;;8.18;;
19384;SDS011;9828;54.122;17.974;2023-07-29T01:52:27;13.25;;;8.82;;
19384;SDS011;9828;54.122;17.974;2023-07-29T01:57:49;7.72;;;6.38;;
19384;SDS011;9828;54.122;17.974;2023-07-29T02:03:12;9.77;;;6.65;;
19384;SDS011;9828;54.122;17.974;2023-07-29T02:08:33;7.32;;;5.22;;
19384;SDS011;9828;54.122;17.974;2023-07-29T02:13:54;5.85;;;5.03;;
19384;SDS011;9828;54.122;17.974;2023-07-29T02:19:16;5.22;;;4.30;;
19384;SDS011;9828;54.122;17.974;2023-07-29T02:24:37;7.75;;;4.75;;
19384;SDS011;9828;54.122;17.974;2023-07-29T02:29:59;5.22;;;4.38;;
19384;SDS011;9828;54.122;17.974;2023-07-29T02:35:20;4.85;;;4.40;;
19384;SDS011;9828;54.122;17.974;2023-07-29T02:40:41;8.60;;;6.40;;
19384;SDS011;9828;54.122;17.974;2023-07-29T02:46:03;11.68;;;7.13;;
19384;SDS011;9828;54.122;17.974;2023-07-29T02:51:25;9.55;;;7.38;;
19384;SDS011;9828;54.122;17.974;2023-07-29T02:56:46;8.18;;;5.95;;
19384;SDS011;9828;54.122;17.974;2023-07-29T03:02:07;6.38;;;5.57;;
19384;SDS011;9828;54.122;17.974;2023-07-29T03:07:29;6.20;;;5.53;;
19384;SDS011;9828;54.122;17.974;2023-07-29T03:12:50;6.65;;;5.63;;
19384;SDS011;9828;54.122;17.974;2023-07-29T03:18:14;5.47;;;4.93;;
19384;SDS011;9828;54.122;17.974;2023-07-29T03:23:36;7.55;;;5.35;;
19384;SDS011;9828;54.122;17.974;2023-07-29T03:28:58;6.70;;;5.85;;
19384;SDS011;9828;54.122;17.974;2023-07-29T03:34:19;9.70;;;7.30;;
19384;SDS011;9828;54.122;17.974;2023-07-29T03:39:41;8.80;;;7.32;;
19384;SDS011;9828;54.122;17.974;2023-07-29T03:45:02;11.05;;;8.75;;
19384;SDS011;9828;54.122;17.974;2023-07-29T03:50:24;8.20;;;6.53;;
19384;SDS011;9828;54.122;17.974;2023-07-29T03:55:46;6.80;;;6.15;;
19384;SDS011;9828;54.122;17.974;2023-07-29T04:01:08;6.68;;;5.88;;
19384;SDS011;9828;54.122;17.974;2023-07-29T04:06:30;6.05;;;5.45;;
19384;SDS011;9828;54.122;17.974;2023-07-29T04:11:51;6.55;;;5.47;;
19384;SDS011;9828;54.122;17.974;2023-07-29T04:17:13;7.95;;;5.70;;
19384;SDS011;9828;54.122;17.974;2023-07-29T04:22:34;7.25;;;5.93;;
19384;SDS011;9828;54.122;17.974;2023-07-29T04:27:55;8.10;;;6.53;;
19384;SDS011;9828;54.122;17.974;2023-07-29T04:33:18;10.27;;;6.95;;
19384;SDS011;9828;54.122;17.974;2023-07-29T04:38:39;11.93;;;9.85;;
19384;SDS011;9828;54.122;17.974;2023-07-29T04:44:01;11.57;;;9.77;;
19384;SDS011;9828;54.122;17.974;2023-07-29T04:49:22;9.13;;;7.13;;
19384;SDS011;9828;54.122;17.974;2023-07-29T04:54:44;5.68;;;4.55;;
19384;SDS011;9828;54.122;17.974;2023-07-29T05:00:05;3.95;;;3.63;;
19384;SDS011;9828;54.122;17.974;2023-07-29T05:05:28;3.80;;;3.50;;
19384;SDS011;9828;54.122;17.974;2023-07-29T05:10:50;4.43;;;4.03;;
19384;SDS011;9828;54.122;17.974;2023-07-29T05:16:13;4.22;;;3.75;;
19384;SDS011;9828;54.122;17.974;2023-07-29T05:21:35;4.38;;;3.72;;
19384;SDS011;9828;54.122;17.974;2023-07-29T05:26:57;4.55;;;3.80;;
19384;SDS011;9828;54.122;17.974;2023-07-29T05:32:19;4.45;;;3.47;;
19384;SDS011;9828;54.122;17.974;2023-07-29T05:37:41;5.07;;;4.57;;
19384;SDS011;9828;54.122;17.974;2023-07-29T05:43:02;6.20;;;5.43;;
19384;SDS011;9828;54.122;17.974;2023-07-29T05:48:23;5.00;;;4.40;;
19384;SDS011;9828;54.122;17.974;2023-07-29T05:53:45;8.63;;;6.18;;
19384;SDS011;9828;54.122;17.974;2023-07-29T05:59:06;12.55;;;7.95;;
19384;SDS011;9828;54.122;17.974;2023-07-29T06:04:27;8.45;;;5.85;;
19384;SDS011;9828;54.122;17.974;2023-07-29T06:09:49;5.22;;;4.10;;
19384;SDS011;9828;54.122;17.974;2023-07-29T06:15:10;5.13;;;4.07;;
19384;SDS011;9828;54.122;17.974;2023-07-29T06:20:33;5.53;;;4.13;;
19384;SDS011;9828;54.122;17.974;2023-07-29T06:25:54;4.15;;;3.10;;
19384;SDS011;9828;54.122;17.974;2023-07-29T06:31:15;3.45;;;3.00;;
19384;SDS011;9828;54.122;17.974;2023-07-29T06:36:37;4.20;;;3.17;;
19384;SDS011;9828;54.122;17.974;2023-07-29T06:41:58;3.95;;;3.55;;
19384;SDS011;9828;54.122;17.974;2023-07-29T06:47:19;3.10;;;2.50;;
19384;SDS011;9828;54.122;17.974;2023-07-29T06:52:41;3.10;;;2.42;;
19384;SDS011;9828;54.122;17.974;2023-07-29T06:58:02;2.05;;;1.90;;
19384;SDS011;9828;54.122;17.974;2023-07-29T07:03:24;4.90;;;2.97;;
19384;SDS011;9828;54.122;17.974;2023-07-29T07:08:45;2.95;;;2.70;;
19384;SDS011;9828;54.122;17.974;2023-07-29T07:14:07;2.42;;;2.22;;
19384;SDS011;9828;54.122;17.974;2023-07-29T07:19:28;2.40;;;2.20;;
19384;SDS011;9828;54.122;17.974;2023-07-29T07:24:49;2.70;;;2.40;;
19384;SDS011;9828;54.122;17.974;2023-07-29T07:30:11;5.25;;;4.00;;
19384;SDS011;9828;54.122;17.974;2023-07-29T07:35:32;4.07;;;2.70;;
19384;SDS011;9828;54.122;17.974;2023-07-29T07:40:54;2.95;;;2.10;;
19384;SDS011;9828;54.122;17.974;2023-07-29T07:46:18;2.78;;;2.17;;
19384;SDS011;9828;54.122;17.974;2023-07-29T07:51:39;2.35;;;2.08;;
19384;SDS011;9828;54.122;17.974;2023-07-29T07:57:00;4.70;;;2.47;;
19384;SDS011;9828;54.122;17.974;2023-07-29T08:02:22;2.45;;;1.70;;
19384;SDS011;9828;54.122;17.974;2023-07-29T08:07:43;2.58;;;1.98;;
19384;SDS011;9828;54.122;17.974;2023-07-29T08:13:04;2.80;;;2.08;;
19384;SDS011;9828;54.122;17.974;2023-07-29T08:18:26;2.40;;;2.20;;
19384;SDS011;9828;54.122;17.974;2023-07-29T08:23:47;2.65;;;2.20;;
19384;SDS011;9828;54.122;17.974;2023-07-29T08:29:09;3.58;;;2.78;;
19384;SDS011;9828;54.122;17.974;2023-07-29T08:34:31;3.78;;;2.25;;
19384;SDS011;9828;54.122;17.974;2023-07-29T08:39:52;3.53;;;1.83;;
19384;SDS011;9828;54.122;17.974;2023-07-29T08:45:14;11.52;;;3.78;;
19384;SDS011;9828;54.122;17.974;2023-07-29T08:50:38;8.25;;;5.20;;
19384;SDS011;9828;54.122;17.974;2023-07-29T08:56:00;4.18;;;2.67;;
19384;SDS011;9828;54.122;17.974;2023-07-29T09:01:22;2.33;;;2.10;;
19384;SDS011;9828;54.122;17.974;2023-07-29T09:06:43;2.58;;;2.38;;
19384;SDS011;9828;54.122;17.974;2023-07-29T09:12:07;4.50;;;2.28;;
19384;SDS011;9828;54.122;17.974;2023-07-29T09:17:33;2.80;;;2.50;;
19384;SDS011;9828;54.122;17.974;2023-07-29T09:22:54;3.15;;;2.60;;
19384;SDS011;9828;54.122;17.974;2023-07-29T09:28:18;3.17;;;2.50;;
19384;SDS011;9828;54.122;17.974;2023-07-29T09:33:40;4.13;;;2.50;;
19384;SDS011;9828;54.122;17.974;2023-07-29T09:39:02;2.75;;;2.38;;
19384;SDS011;9828;54.122;17.974;2023-07-29T09:44:24;3.25;;;2.50;;
19384;SDS011;9828;54.122;17.974;2023-07-29T09:49:45;5.13;;;2.75;;
19384;SDS011;9828;54.122;17.974;2023-07-29T09:55:07;2.78;;;2.22;;
19384;SDS011;9828;54.122;17.974;2023-07-29T10:00:29;2.50;;;2.30;;
19384;SDS011;9828;54.122;17.974;2023-07-29T10:05:51;2.15;;;1.92;;
19384;SDS011;9828;54.122;17.974;2023-07-29T10:11:12;3.25;;;2.40;;
19384;SDS011;9828;54.122;17.974;2023-07-29T10:16:34;4.20;;;2.40;;
19384;SDS011;9828;54.122;17.974;2023-07-29T10:21:58;2.80;;;2.30;;
19384;SDS011;9828;54.122;17.974;2023-07-29T10:27:23;6.55;;;1.90;;
19384;SDS011;9828;54.122;17.974;2023-07-29T10:32:46;3.60;;;2.65;;
19384;SDS011;9828;54.122;17.974;2023-07-29T10:38:09;5.18;;;2.00;;
19384;SDS011;9828;54.122;17.974;2023-07-29T10:43:32;1.77;;;1.58;;
19384;SDS011;9828;54.122;17.974;2023-07-29T10:48:54;1.83;;;1.63;;
19384;SDS011;9828;54.122;17.974;2023-07-29T10:54:17;2.33;;;2.13;;
19384;SDS011;9828;54.122;17.974;2023-07-29T10:59:39;1.75;;;1.60;;
19384;SDS011;9828;54.122;17.974;2023-07-29T11:05:04;2.55;;;2.03;;
19384;SDS011;9828;54.122;17.974;2023-07-29T11:10:42;3.28;;;1.88;;
19384;SDS011;9828;54.122;17.974;2023-07-29T11:16:05;5.28;;;1.83;;
19384;SDS011;9828;54.122;17.974;2023-07-29T11:21:26;2.78;;;2.05;;
19384;SDS011;9828;54.122;17.974;2023-07-29T11:26:49;4.07;;;1.83;;
19384;SDS011;9828;54.122;17.974;2023-07-29T11:32:10;3.60;;;2.08;;
19384;SDS011;9828;54.122;17.974;2023-07-29T11:37:32;1.63;;;1.52;;
19384;SDS011;9828;54.122;17.974;2023-07-29T11:42:54;1.80;;;1.55;;
19384;SDS011;9828;54.122;17.974;2023-07-29T11:48:15;3.97;;;1.48;;
19384;SDS011;9828;54.122;17.974;2023-07-29T11:53:37;4.18;;;1.98;;
19384;SDS011;9828;54.122;17.974;2023-07-29T11:58:58;3.67;;;1.92;;
19384;SDS011;9828;54.122;17.974;2023-07-29T12:04:20;2.65;;;2.13;;
19384;SDS011;9828;54.122;17.974;2023-07-29T12:09:42;4.60;;;1.65;;
19384;SDS011;9828;54.122;17.974;2023-07-29T12:15:04;2.30;;;1.88;;
19384;SDS011;9828;54.122;17.974;2023-07-29T12:20:26;3.97;;;1.70;;
19384;SDS011;9828;54.122;17.974;2023-07-29T12:25:49;3.95;;;1.95;;
19384;SDS011;9828;54.122;17.974;2023-07-29T12:31:12;5.53;;;2.75;;
19384;SDS011;9828;54.122;17.974;2023-07-29T12:42:25;2.70;;;1.77;;
19384;SDS011;9828;54.122;17.974;2023-07-29T12:47:47;2.38;;;1.60;;
19384;SDS011;9828;54.122;17.974;2023-07-29T12:53:08;2.63;;;1.65;;
19384;SDS011;9828;54.122;17.974;2023-07-29T12:58:33;1.88;;;1.77;;
19384;SDS011;9828;54.122;17.974;2023-07-29T13:03:55;4.05;;;1.40;;
19384;SDS011;9828;54.122;17.974;2023-07-29T13:09:17;2.50;;;1.60;;
19384;SDS011;9828;54.122;17.974;2023-07-29T13:14:38;1.80;;;1.40;;
19384;SDS011;9828;54.122;17.974;2023-07-29T13:19:59;2.70;;;1.50;;
19384;SDS011;9828;54.122;17.974;2023-07-29T13:25:21;1.55;;;1.45;;
19384;SDS011;9828;54.122;17.974;2023-07-29T13:30:42;1.70;;;1.60;;
19384;SDS011;9828;54.122;17.974;2023-07-29T13:36:04;4.03;;;1.92;;
19384;SDS011;9828;54.122;17.974;2023-07-29T13:41:25;1.63;;;1.50;;
19384;SDS011;9828;54.122;17.974;2023-07-29T13:46:47;3.20;;;2.35;;
19384;SDS011;9828;54.122;17.974;2023-07-29T13:52:08;5.85;;;3.28;;
19384;SDS011;9828;54.122;17.974;2023-07-29T13:57:29;6.07;;;4.28;;
19384;SDS011;9828;54.122;17.974;2023-07-29T14:02:51;2.28;;;1.70;;
19384;SDS011;9828;54.122;17.974;2023-07-29T14:08:12;1.63;;;1.52;;
19384;SDS011;9828;54.122;17.974;2023-07-29T14:13:33;3.42;;;2.30;;
19384;SDS011;9828;54.122;17.974;2023-07-29T14:18:55;2.03;;;1.85;;
19384;SDS011;9828;54.122;17.974;2023-07-29T14:24:16;2.90;;;1.80;;
19384;SDS011;9828;54.122;17.974;2023-07-29T14:29:38;2.30;;;2.03;;
19384;SDS011;9828;54.122;17.974;2023-07-29T14:34:59;2.75;;;2.10;;
19384;SDS011;9828;54.122;17.974;2023-07-29T14:40:24;1.88;;;1.63;;
19384;SDS011;9828;54.122;17.974;2023-07-29T14:45:46;1.42;;;1.33;;
19384;SDS011;9828;54.122;17.974;2023-07-29T14:51:07;1.90;;;1.48;;
19384;SDS011;9828;54.122;17.974;2023-07-29T14:56:29;4.80;;;1.98;;
19384;SDS011;9828;54.122;17.974;2023-07-29T15:01:50;3.97;;;3.03;;
19384;SDS011;9828;54.122;17.974;2023-07-29T15:07:11;2.80;;;2.20;;
19384;SDS011;9828;54.122;17.974;2023-07-29T15:12:33;6.10;;;2.78;;
19384;SDS011;9828;54.122;17.974;2023-07-29T15:17:54;3.35;;;2.47;;
19384;SDS011;9828;54.122;17.974;2023-07-29T15:23:17;2.00;;;1.80;;
19384;SDS011;9828;54.122;17.974;2023-07-29T15:28:39;2.08;;;1.58;;
19384;SDS011;9828;54.122;17.974;2023-07-29T15:34:00;2.88;;;1.92;;
19384;SDS011;9828;54.122;17.974;2023-07-29T15:39:22;3.63;;;2.20;;
19384;SDS011;9828;54.122;17.974;2023-07-29T15:44:43;2.92;;;2.65;;
19384;SDS011;9828;54.122;17.974;2023-07-29T15:50:04;1.88;;;1.73;;
19384;SDS011;9828;54.122;17.974;2023-07-29T15:55:26;4.03;;;2.03;;
19384;SDS011;9828;54.122;17.974;2023-07-29T16:00:48;3.13;;;1.65;;
19384;SDS011;9828;54.122;17.974;2023-07-29T16:06:09;1.90;;;1.70;;
19384;SDS011;9828;54.122;17.974;2023-07-29T16:11:30;1.50;;;1.35;;
19384;SDS011;9828;54.122;17.974;2023-07-29T16:16:52;2.15;;;1.63;;
19384;SDS011;9828;54.122;17.974;2023-07-29T16:22:13;2.08;;;1.60;;
19384;SDS011;9828;54.122;17.974;2023-07-29T16:27:35;3.50;;;2.45;;
19384;SDS011;9828;54.122;17.974;2023-07-29T16:32:56;2.65;;;2.22;;
19384;SDS011;9828;54.122;17.974;2023-07-29T16:38:17;2.78;;;2.00;;
19384;SDS011;9828;54.122;17.974;2023-07-29T16:43:39;7.93;;;2.55;;
19384;SDS011;9828;54.122;17.974;2023-07-29T16:49:00;3.45;;;2.63;;
19384;SDS011;9828;54.122;17.974;2023-07-29T16:54:22;3.35;;;2.80;;
19384;SDS011;9828;54.122;17.974;2023-07-29T16:59:43;3.95;;;2.88;;
19384;SDS011;9828;54.122;17.974;2023-07-29T17:05:05;5.88;;;3.22;;
19384;SDS011;9828;54.122;17.974;2023-07-29T17:10:27;3.78;;;3.17;;
19384;SDS011;9828;54.122;17.974;2023-07-29T17:15:48;4.65;;;4.05;;
19384;SDS011;9828;54.122;17.974;2023-07-29T17:21:10;5.05;;;3.55;;
19384;SDS011;9828;54.122;17.974;2023-07-29T17:26:32;4.00;;;3.35;;
19384;SDS011;9828;54.122;17.974;2023-07-29T17:31:53;3.72;;;2.70;;
19384;SDS011;9828;54.122;17.974;2023-07-29T17:37:14;4.55;;;2.95;;
19384;SDS011;9828;54.122;17.974;2023-07-29T17:42:35;5.30;;;2.90;;
19384;SDS011;9828;54.122;17.974;2023-07-29T17:47:57;5.63;;;3.10;;
19384;SDS011;9828;54.122;17.974;2023-07-29T17:53:18;6.30;;;3.40;;
19384;SDS011;9828;54.122;17.974;2023-07-29T17:58:40;4.18;;;3.72;;
19384;SDS011;9828;54.122;17.974;2023-07-29T18:04:01;3.83;;;3.33;;
19384;SDS011;9828;54.122;17.974;2023-07-29T18:09:22;3.85;;;2.67;;
19384;SDS011;9828;54.122;17.974;2023-07-29T18:14:44;8.40;;;3.15;;
19384;SDS011;9828;54.122;17.974;2023-07-29T18:20:05;6.75;;;3.65;;
19384;SDS011;9828;54.122;17.974;2023-07-29T18:25:27;6.57;;;3.78;;
19384;SDS011;9828;54.122;17.974;2023-07-29T18:30:49;10.52;;;3.75;;
19384;SDS011;9828;54.122;17.974;2023-07-29T18:36:10;3.75;;;3.25;;
19384;SDS011;9828;54.122;17.974;2023-07-29T18:41:31;5.38;;;2.90;;
19384;SDS011;9828;54.122;17.974;2023-07-29T18:46:53;3.83;;;2.53;;
19384;SDS011;9828;54.122;17.974;2023-07-29T18:52:14;4.95;;;2.80;;
19384;SDS011;9828;54.122;17.974;2023-07-29T18:57:36;7.55;;;3.10;;
19384;SDS011;9828;54.122;17.974;2023-07-29T19:02:57;7.82;;;4.07;;
19384;SDS011;9828;54.122;17.974;2023-07-29T19:08:18;6.57;;;3.63;;
19384;SDS011;9828;54.122;17.974;2023-07-29T19:13:40;3.10;;;2.55;;
19384;SDS011;9828;54.122;17.974;2023-07-29T19:19:01;5.55;;;3.90;;
19384;SDS011;9828;54.122;17.974;2023-07-29T19:24:22;6.00;;;3.13;;
19384;SDS011;9828;54.122;17.974;2023-07-29T19:29:44;4.32;;;2.55;;
19384;SDS011;9828;54.122;17.974;2023-07-29T19:35:06;2.75;;;2.15;;
19384;SDS011;9828;54.122;17.974;2023-07-29T19:40:28;3.30;;;2.10;;
19384;SDS011;9828;54.122;17.974;2023-07-29T19:45:54;3.08;;;1.90;;
19384;SDS011;9828;54.122;17.974;2023-07-29T19:51:35;2.22;;;1.80;;
19384;SDS011;9828;54.122;17.974;2023-07-29T19:56:56;3.63;;;2.28;;
19384;SDS011;9828;54.122;17.974;2023-07-29T20:02:18;3.33;;;2.10;;
19384;SDS011;9828;54.122;17.974;2023-07-29T20:07:39;3.42;;;2.28;;
19384;SDS011;9828;54.122;17.974;2023-07-29T20:13:00;3.65;;;2.30;;
19384;SDS011;9828;54.122;17.974;2023-07-29T20:18:22;6.97;;;3.13;;
19384;SDS011;9828;54.122;17.974;2023-07-29T20:23:43;4.13;;;2.22;;
19384;SDS011;9828;54.122;17.974;2023-07-29T20:29:05;3.25;;;1.90;;
19384;SDS011;9828;54.122;17.974;2023-07-29T20:34:26;2.22;;;2.03;;
19384;SDS011;9828;54.122;17.974;2023-07-29T20:39:47;3.35;;;2.33;;
19384;SDS011;9828;54.122;17.974;2023-07-29T20:45:09;4.13;;;2.13;;
19384;SDS011;9828;54.122;17.974;2023-07-29T20:50:31;3.60;;;1.98;;
19384;SDS011;9828;54.122;17.974;2023-07-29T20:55:52;2.17;;;2.03;;
19384;SDS011;9828;54.122;17.974;2023-07-29T21:01:14;2.03;;;1.75;;
19384;SDS011;9828;54.122;17.974;2023-07-29T21:06:35;2.20;;;1.65;;
19384;SDS011;9828;54.122;17.974;2023-07-29T21:11:59;1.90;;;1.63;;
19384;SDS011;9828;54.122;17.974;2023-07-29T21:17:20;2.03;;;1.60;;
19384;SDS011;9828;54.122;17.974;2023-07-29T21:22:42;2.38;;;1.70;;
19384;SDS011;9828;54.122;17.974;2023-07-29T21:28:03;2.55;;;1.67;;
19384;SDS011;9828;54.122;17.974;2023-07-29T21:33:25;1.48;;;1.38;;
19384;SDS011;9828;54.122;17.974;2023-07-29T21:38:48;2.22;;;1.70;;
19384;SDS011;9828;54.122;17.974;2023-07-29T21:44:09;1.98;;;1.70;;
19384;SDS011;9828;54.122;17.974;2023-07-29T21:49:31;1.40;;;1.30;;
19384;SDS011;9828;54.122;17.974;2023-07-29T21:54:52;2.55;;;1.77;;
19384;SDS011;9828;54.122;17.974;2023-07-29T22:00:13;1.95;;;1.50;;
19384;SDS011;9828;54.122;17.974;2023-07-29T22:05:39;1.77;;;1.65;;
19384;SDS011;9828;54.122;17.974;2023-07-29T22:11:09;2.53;;;1.40;;
19384;SDS011;9828;54.122;17.974;2023-07-29T22:16:32;2.92;;;1.48;;
19384;SDS011;9828;54.122;17.974;2023-07-29T22:21:53;2.15;;;1.60;;
19384;SDS011;9828;54.122;17.974;2023-07-29T22:27:14;3.20;;;1.38;;
19384;SDS011;9828;54.122;17.974;2023-07-29T22:32:36;3.85;;;1.92;;
19384;SDS011;9828;54.122;17.974;2023-07-29T22:37:57;2.42;;;1.30;;
19384;SDS011;9828;54.122;17.974;2023-07-29T22:43:19;3.03;;;1.45;;
19384;SDS011;9828;54.122;17.974;2023-07-29T22:48:40;1.67;;;1.58;;
19384;SDS011;9828;54.122;17.974;2023-07-29T22:54:02;1.80;;;1.70;;
19384;SDS011;9828;54.122;17.974;2023-07-29T22:59:23;4.18;;;1.70;;
19384;SDS011;9828;54.122;17.974;2023-07-29T23:04:45;2.25;;;2.05;;
19384;SDS011;9828;54.122;17.974;2023-07-29T23:10:06;2.47;;;1.67;;
19384;SDS011;9828;54.122;17.974;2023-07-29T23:15:29;3.33;;;1.85;;
19384;SDS011;9828;54.122;17.974;2023-07-29T23:20:54;3.80;;;1.92;;
19384;SDS011;9828;54.122;17.974;2023-07-29T23:26:15;1.60;;;1.50;;
19384;SDS011;9828;54.122;17.974;2023-07-29T23:31:37;3.67;;;2.30;;
19384;SDS011;9828;54.122;17.974;2023-07-29T23:36:58;2.80;;;2.00;;
19384;SDS011;9828;54.122;17.974;2023-07-29T23:42:19;4.75;;;1.98;;
19384;SDS011;9828;54.122;17.974;2023-07-29T23:47:41;2.92;;;2.20;;
19384;SDS011;9828;54.122;17.974;2023-07-29T23:53:02;3.08;;;2.58;;
19384;SDS011;9828;54.122;17.974;2023-07-29T23:58:24;3.78;;;2.85;;
